Time;durP1;ratioP1;P1;durP2;ratioP2;P2;SDS_P1;SDS_P2;PMS_P1;PMS_P2;Temp;Humidity;BMP_temperature;BMP_pressure;BME280_temperature;BME280_humidity;BME280_pressure;Samples;Min_cycle;Max_cycle;Signal;HPM_P1;HPM_P2
2021/01/01 00:01:09;;;;;;;52.90;40.33;;;8.20;99.90;;;;;;5092416;28;20418;-72
2021/01/01 00:03:35;;;;;;;50.20;38.60;;;8.20;99.90;;;;;;5083839;28;20194;-72
2021/01/01 00:06:00;;;;;;;49.17;35.97;;;8.10;99.90;;;;;;5089962;28;20193;-72
2021/01/01 00:08:28;;;;;;;68.60;44.40;;;8.20;99.90;;;;;;5085733;28;20818;-72
2021/01/01 00:10:54;;;;;;;55.43;39.40;;;8.10;99.90;;;;;;5086563;28;20184;-72
2021/01/01 00:13:19;;;;;;;59.80;39.10;;;8.10;99.90;;;;;;5091454;28;20725;-72
2021/01/01 00:15:45;;;;;;;50.43;37.30;;;8.10;99.90;;;;;;5089928;28;20200;-72
2021/01/01 00:18:11;;;;;;;44.87;34.27;;;8.10;99.90;;;;;;5090204;28;20724;-72
2021/01/01 00:20:41;;;;;;;47.90;34.93;;;8.00;99.90;;;;;;5090236;28;20212;-72
2021/01/01 00:23:09;;;;;;;42.07;32.43;;;8.00;99.90;;;;;;5087147;28;20196;-72
2021/01/01 00:25:34;;;;;;;44.43;34.10;;;8.10;99.90;;;;;;5091554;28;20414;-72
2021/01/01 00:28:00;;;;;;;44.07;32.10;;;7.80;99.90;;;;;;5088621;28;20966;-72
2021/01/01 00:30:26;;;;;;;43.87;31.57;;;7.80;99.90;;;;;;5089337;28;20231;-72
2021/01/01 00:32:51;;;;;;;43.70;33.53;;;7.80;99.90;;;;;;5072992;28;20207;-72
2021/01/01 00:35:17;;;;;;;44.30;33.23;;;7.80;99.90;;;;;;5090058;28;20429;-72
2021/01/01 00:37:43;;;;;;;40.43;32.93;;;7.70;99.90;;;;;;5090239;28;20223;-73
2021/01/01 00:40:09;;;;;;;43.07;33.30;;;7.90;99.90;;;;;;5091624;28;20291;-73
2021/01/01 00:42:36;;;;;;;46.00;33.47;;;7.60;99.90;;;;;;5091000;28;20207;-72
2021/01/01 00:45:03;;;;;;;45.10;34.57;;;7.60;99.90;;;;;;5090848;28;20419;-72
2021/01/01 00:47:29;;;;;;;41.57;33.17;;;7.40;99.90;;;;;;5085094;28;20446;-72
2021/01/01 00:49:54;;;;;;;50.93;34.47;;;7.70;99.90;;;;;;5089014;28;20516;-72
2021/01/01 00:52:20;;;;;;;43.97;32.33;;;7.40;99.90;;;;;;5088706;28;20677;-72
2021/01/01 00:54:46;;;;;;;46.23;32.37;;;7.20;99.90;;;;;;5084608;28;20196;-72
2021/01/01 00:57:11;;;;;;;47.37;32.37;;;7.00;99.90;;;;;;5068431;28;20250;-72
2021/01/01 00:59:37;;;;;;;44.57;33.87;;;6.90;99.90;;;;;;5087577;28;20428;-73
2021/01/01 01:02:03;;;;;;;42.73;30.70;;;7.00;99.90;;;;;;5069417;28;20200;-72
2021/01/01 01:04:28;;;;;;;45.57;31.50;;;6.80;99.90;;;;;;5085236;28;20289;-72
2021/01/01 01:06:54;;;;;;;40.40;29.80;;;6.90;99.90;;;;;;5088849;28;20280;-72
2021/01/01 01:09:20;;;;;;;42.77;30.47;;;7.00;99.90;;;;;;5087957;28;20233;-72
2021/01/01 01:11:45;;;;;;;45.17;30.83;;;6.80;99.90;;;;;;5085127;28;20196;-72
2021/01/01 01:14:11;;;;;;;43.57;29.03;;;6.60;99.90;;;;;;5084438;28;20231;-72
2021/01/01 01:16:37;;;;;;;41.33;30.93;;;6.70;99.90;;;;;;5089554;28;20286;-72
2021/01/01 01:19:02;;;;;;;39.60;28.40;;;6.60;99.90;;;;;;5070240;28;20234;-73
2021/01/01 01:21:28;;;;;;;39.27;29.00;;;6.70;99.90;;;;;;5081023;28;20179;-72
2021/01/01 01:23:55;;;;;;;42.60;29.20;;;6.60;99.90;;;;;;5088660;28;20653;-72
2021/01/01 01:26:21;;;;;;;41.60;30.60;;;6.50;99.90;;;;;;5089305;28;20181;-72
2021/01/01 01:28:47;;;;;;;41.17;31.47;;;6.60;99.90;;;;;;5088846;28;20808;-72
2021/01/01 01:31:13;;;;;;;46.40;32.00;;;6.40;99.90;;;;;;5086237;28;20422;-72
2021/01/01 01:33:39;;;;;;;45.97;32.53;;;6.50;99.90;;;;;;5087067;28;20431;-72
2021/01/01 01:36:05;;;;;;;46.47;31.40;;;6.40;99.90;;;;;;5089370;28;20426;-72
2021/01/01 01:38:31;;;;;;;47.87;33.60;;;6.30;99.90;;;;;;5088836;28;20430;-72
2021/01/01 01:40:57;;;;;;;45.77;33.10;;;6.50;99.90;;;;;;5070935;28;20193;-72
2021/01/01 01:43:24;;;;;;;48.07;34.47;;;6.20;99.90;;;;;;5086711;28;20189;-72
2021/01/01 01:45:53;;;;;;;45.17;33.40;;;6.30;99.90;;;;;;5070705;28;20546;-72
2021/01/01 01:48:24;;;;;;;49.70;33.17;;;6.30;99.90;;;;;;5070792;28;21052;-72
2021/01/01 01:50:50;;;;;;;47.20;32.60;;;6.00;99.90;;;;;;5087455;28;20501;-72
2021/01/01 01:53:17;;;;;;;45.67;32.80;;;6.30;99.90;;;;;;5088130;28;20866;-72
2021/01/01 01:55:43;;;;;;;49.67;32.07;;;6.10;99.90;;;;;;5088287;28;20180;-72
2021/01/01 01:58:09;;;;;;;48.47;31.37;;;5.90;99.90;;;;;;5087429;28;20422;-72
2021/01/01 02:03:19;;;;;;;47.30;32.23;;;6.00;99.90;;;;;;5087950;28;20199;-72
2021/01/01 02:05:44;;;;;;;48.80;32.30;;;6.10;99.90;;;;;;5086819;28;20419;-72
2021/01/01 02:08:12;;;;;;;48.27;32.13;;;5.80;99.90;;;;;;5088508;28;20733;-72
2021/01/01 02:10:38;;;;;;;45.67;31.20;;;6.10;99.90;;;;;;5087083;28;20195;-72
2021/01/01 02:13:04;;;;;;;47.00;32.73;;;6.10;99.90;;;;;;5086562;28;20449;-72
2021/01/01 02:15:30;;;;;;;46.83;32.70;;;6.00;99.90;;;;;;5070004;28;20208;-72
2021/01/01 02:17:59;;;;;;;50.70;32.67;;;5.90;99.90;;;;;;5088413;28;20238;-72
2021/01/01 02:20:25;;;;;;;49.60;33.40;;;6.00;99.90;;;;;;5088116;28;20622;-72
2021/01/01 02:22:51;;;;;;;46.97;31.87;;;5.60;99.90;;;;;;5087420;28;21094;-75
2021/01/01 02:25:17;;;;;;;52.63;34.47;;;5.40;99.90;;;;;;5088106;28;20207;-75
2021/01/01 02:27:43;;;;;;;49.33;32.57;;;5.60;99.90;;;;;;5087908;28;20454;-72
2021/01/01 02:30:09;;;;;;;47.57;33.60;;;5.50;99.90;;;;;;5086852;28;20438;-72
2021/01/01 02:32:35;;;;;;;48.20;33.50;;;5.70;99.90;;;;;;5085901;28;20189;-72
2021/01/01 02:35:02;;;;;;;48.43;31.87;;;5.90;99.90;;;;;;5086178;28;20582;-74
2021/01/01 02:37:28;;;;;;;44.17;30.93;;;5.60;99.90;;;;;;5086960;28;20195;-75
2021/01/01 02:39:54;;;;;;;48.40;31.80;;;5.80;99.90;;;;;;5087922;28;20466;-73
2021/01/01 02:42:19;;;;;;;54.50;34.27;;;5.80;99.90;;;;;;5086890;28;20177;-72
2021/01/01 02:44:47;;;;;;;48.43;32.40;;;5.80;99.90;;;;;;5087502;28;20854;-72
2021/01/01 02:47:16;;;;;;;51.60;35.00;;;5.70;99.90;;;;;;5086769;28;20217;-72
2021/01/01 02:49:42;;;;;;;55.47;35.50;;;5.30;99.90;;;;;;5086773;28;20525;-72
2021/01/01 02:52:08;;;;;;;48.43;33.93;;;5.50;99.90;;;;;;5087824;28;20963;-72
2021/01/01 02:54:34;;;;;;;52.70;34.70;;;5.40;99.90;;;;;;5087233;28;20518;-73
2021/01/01 02:57:00;;;;;;;51.57;35.07;;;5.40;99.90;;;;;;5086439;28;20995;-73
2021/01/01 02:59:25;;;;;;;51.63;34.70;;;5.30;99.90;;;;;;5086533;28;20232;-72
2021/01/01 03:01:52;;;;;;;56.73;38.80;;;5.10;99.90;;;;;;5087501;28;20188;-72
2021/01/01 03:04:18;;;;;;;64.57;41.60;;;5.10;99.90;;;;;;5087487;28;20176;-72
2021/01/01 03:06:43;;;;;;;66.77;42.20;;;5.20;99.90;;;;;;5086159;28;20418;-72
2021/01/01 03:09:09;;;;;;;66.33;42.83;;;5.20;99.90;;;;;;5087951;28;20196;-75
2021/01/01 03:11:35;;;;;;;60.77;40.70;;;5.30;99.90;;;;;;5087695;28;20195;-75
2021/01/01 03:14:00;;;;;;;59.00;38.17;;;5.10;99.90;;;;;;5086039;28;20192;-75
2021/01/01 03:16:26;;;;;;;60.07;38.40;;;5.20;99.90;;;;;;5086239;28;20212;-74
2021/01/01 03:18:52;;;;;;;52.83;36.90;;;5.00;99.90;;;;;;5087454;28;20212;-75
2021/01/01 03:21:18;;;;;;;57.47;37.87;;;5.10;99.90;;;;;;5087583;28;20227;-74
2021/01/01 03:23:44;;;;;;;56.33;35.50;;;5.10;99.90;;;;;;5085644;28;20189;-74
2021/01/01 03:26:10;;;;;;;47.60;33.37;;;5.20;99.90;;;;;;5087580;28;20969;-74
2021/01/01 03:28:36;;;;;;;48.77;33.73;;;5.30;99.90;;;;;;5087684;28;20430;-74
2021/01/01 03:31:01;;;;;;;49.50;31.87;;;5.40;99.90;;;;;;5086566;28;20184;-74
2021/01/01 03:33:30;;;;;;;47.00;31.67;;;5.30;99.90;;;;;;5085475;28;20189;-74
2021/01/01 03:35:56;;;;;;;46.40;31.10;;;5.20;99.90;;;;;;5070063;28;20434;-74
2021/01/01 03:38:22;;;;;;;43.60;30.70;;;5.40;99.90;;;;;;5086104;28;20476;-74
2021/01/01 03:40:48;;;;;;;42.00;29.33;;;5.50;99.90;;;;;;5086149;28;20508;-74
2021/01/01 03:43:14;;;;;;;40.93;27.13;;;5.40;99.90;;;;;;5086926;28;20189;-74
2021/01/01 03:45:40;;;;;;;40.97;27.10;;;5.30;99.90;;;;;;5089118;28;20427;-74
2021/01/01 03:48:06;;;;;;;39.37;26.20;;;5.20;99.90;;;;;;5072932;28;20468;-74
2021/01/01 03:50:32;;;;;;;40.20;26.97;;;5.30;99.90;;;;;;5091231;28;20257;-74
2021/01/01 03:52:58;;;;;;;38.83;26.67;;;5.30;99.90;;;;;;5090400;28;20805;-74
2021/01/01 03:55:23;;;;;;;41.80;27.33;;;5.00;99.90;;;;;;5090314;28;20200;-74
2021/01/01 03:57:49;;;;;;;38.93;26.60;;;5.10;99.90;;;;;;5072599;28;20230;-74
2021/01/01 04:00:15;;;;;;;38.50;26.50;;;5.00;99.90;;;;;;5090810;28;20442;-74
2021/01/01 04:02:41;;;;;;;41.30;26.37;;;5.10;99.90;;;;;;5090828;28;20433;-74
2021/01/01 04:05:08;;;;;;;35.13;25.17;;;4.90;99.90;;;;;;5090041;28;20418;-74
2021/01/01 04:07:33;;;;;;;36.90;24.90;;;5.00;99.90;;;;;;5091149;28;20188;-74
2021/01/01 04:09:59;;;;;;;39.33;26.70;;;5.00;99.90;;;;;;5090506;28;20434;-74
2021/01/01 04:12:25;;;;;;;37.00;25.87;;;5.00;99.90;;;;;;5089552;28;20422;-74
2021/01/01 04:14:50;;;;;;;41.53;27.07;;;5.00;99.90;;;;;;5090044;28;20497;-74
2021/01/01 04:17:16;;;;;;;42.00;26.37;;;4.80;99.90;;;;;;5072386;28;20261;-74
2021/01/01 04:19:42;;;;;;;38.53;26.27;;;4.90;99.90;;;;;;5090368;28;20495;-74
2021/01/01 04:22:08;;;;;;;41.37;26.80;;;4.80;99.90;;;;;;5089592;28;20659;-74
2021/01/01 04:24:33;;;;;;;39.77;26.47;;;5.00;99.90;;;;;;5090112;28;20185;-74
2021/01/01 04:26:59;;;;;;;41.73;26.37;;;5.00;99.90;;;;;;5090946;28;20269;-74
2021/01/01 04:29:24;;;;;;;37.50;26.80;;;5.10;99.90;;;;;;5089242;28;20226;-74
2021/01/01 04:31:50;;;;;;;38.17;25.30;;;5.10;99.90;;;;;;5089284;28;20208;-74
2021/01/01 04:34:16;;;;;;;39.70;25.93;;;5.00;99.90;;;;;;5090111;28;20195;-74
2021/01/01 04:36:41;;;;;;;41.03;26.77;;;5.10;99.90;;;;;;5072316;28;20691;-75
2021/01/01 04:39:10;;;;;;;36.13;24.80;;;5.10;99.90;;;;;;5090389;28;20269;-74
2021/01/01 04:41:39;;;;;;;37.27;25.60;;;5.00;99.90;;;;;;5090274;28;20255;-74
2021/01/01 04:44:06;;;;;;;38.50;24.80;;;5.10;99.90;;;;;;5089545;28;20422;-74
2021/01/01 04:46:32;;;;;;;38.27;27.33;;;5.00;99.90;;;;;;5089817;28;20414;-75
2021/01/01 04:49:01;;;;;;;42.37;27.60;;;4.90;99.90;;;;;;5089961;28;20775;-75
2021/01/01 04:51:27;;;;;;;43.50;27.33;;;4.90;99.90;;;;;;5071746;28;20635;-74
2021/01/01 04:53:56;;;;;;;43.90;27.27;;;4.90;99.90;;;;;;5071250;28;20438;-74
2021/01/01 04:56:22;;;;;;;35.53;24.23;;;4.70;99.90;;;;;;5088790;28;20426;-75
2021/01/01 04:58:48;;;;;;;41.27;28.10;;;4.90;99.90;;;;;;5089869;28;20505;-74
2021/01/01 05:01:14;;;;;;;37.13;25.30;;;4.80;99.90;;;;;;5088369;28;20470;-74
2021/01/01 05:03:40;;;;;;;41.77;27.53;;;5.00;99.90;;;;;;5089358;28;20445;-74
2021/01/01 05:06:05;;;;;;;39.10;25.97;;;4.90;99.90;;;;;;5071560;28;20430;-74
2021/01/01 05:08:32;;;;;;;39.67;26.30;;;4.70;99.90;;;;;;5088571;28;20422;-74
2021/01/01 05:11:09;;;;;;;43.40;26.70;;;4.70;99.90;;;;;;5054605;28;20191;-74
2021/01/01 05:13:35;;;;;;;42.13;26.77;;;4.70;99.90;;;;;;5088761;28;20428;-74
2021/01/01 05:16:00;;;;;;;37.00;23.97;;;4.40;99.90;;;;;;5088166;28;20446;-74
2021/01/01 05:18:28;;;;;;;39.13;25.93;;;4.40;99.90;;;;;;5071482;28;20192;-74
2021/01/01 05:20:58;;;;;;;37.50;24.83;;;4.30;99.90;;;;;;5089283;28;20207;-74
2021/01/01 05:23:26;;;;;;;41.00;26.53;;;4.40;99.90;;;;;;5070660;28;20792;-74
2021/01/01 05:26:12;;;;;;;41.97;26.90;;;4.40;99.90;;;;;;5088152;28;20461;-74
2021/01/01 05:28:50;;;;;;;33.93;23.30;;;4.60;99.90;;;;;;5088113;28;20517;-75
2021/01/01 05:31:29;;;;;;;37.40;23.70;;;4.50;99.90;;;;;;5066699;28;20529;-74
2021/01/01 05:34:01;;;;;;;34.43;23.57;;;4.60;99.90;;;;;;5067089;28;20568;-74
2021/01/01 05:36:40;;;;;;;35.93;23.17;;;4.70;99.90;;;;;;5088966;28;20421;-74
2021/01/01 05:39:27;;;;;;;38.00;24.20;;;4.50;99.90;;;;;;5089109;28;20614;-74
2021/01/01 05:41:53;;;;;;;35.00;24.17;;;4.50;99.90;;;;;;5088762;28;20429;-74
2021/01/01 05:44:31;;;;;;;40.07;25.40;;;4.30;99.90;;;;;;5070415;28;20426;-74
2021/01/01 05:47:06;;;;;;;37.33;25.10;;;4.40;99.90;;;;;;5088499;28;20422;-74
2021/01/01 05:49:33;;;;;;;38.60;24.50;;;4.20;99.90;;;;;;5087955;28;20797;-74
2021/01/01 05:52:21;;;;;;;35.53;23.17;;;4.10;99.90;;;;;;5088582;28;20423;-74
2021/01/01 05:54:49;;;;;;;33.73;23.53;;;4.10;99.90;;;;;;5088218;28;20422;-74
2021/01/01 05:57:16;;;;;;;36.73;25.30;;;4.30;99.90;;;;;;5087098;28;20434;-74
2021/01/01 05:59:44;;;;;;;38.60;24.87;;;3.90;99.90;;;;;;5088605;28;20461;-74
2021/01/01 06:02:11;;;;;;;33.13;22.80;;;4.30;99.90;;;;;;5088868;28;20788;-74
2021/01/01 06:04:38;;;;;;;37.20;25.53;;;4.10;99.90;;;;;;5070047;28;20478;-74
2021/01/01 06:07:09;;;;;;;35.70;24.03;;;3.90;99.90;;;;;;5088367;28;20773;-74
2021/01/01 06:09:36;;;;;;;38.27;24.57;;;4.10;99.90;;;;;;5088518;28;20426;-74
2021/01/01 06:12:12;;;;;;;36.97;24.90;;;4.00;99.90;;;;;;5087142;28;20422;-74
2021/01/01 06:14:40;;;;;;;35.80;23.30;;;4.10;99.90;;;;;;5088376;28;20437;-74
2021/01/01 06:17:08;;;;;;;38.10;25.30;;;4.10;99.90;;;;;;5087153;28;20457;-74
2021/01/01 06:19:54;;;;;;;41.40;24.67;;;4.10;99.90;;;;;;5086958;28;20458;-74
2021/01/01 06:22:19;;;;;;;38.30;25.50;;;3.90;99.90;;;;;;5086780;28;20422;-74
2021/01/01 06:24:53;;;;;;;39.50;25.83;;;4.00;99.90;;;;;;5088148;28;20429;-74
2021/01/01 06:27:21;;;;;;;36.30;25.73;;;3.70;99.90;;;;;;5088382;28;20656;-74
2021/01/01 06:29:50;;;;;;;31.03;22.63;;;3.80;99.90;;;;;;5088745;28;20433;-74
2021/01/01 06:32:19;;;;;;;41.23;26.20;;;3.80;99.90;;;;;;5073638;28;20434;-74
2021/01/01 06:34:45;;;;;;;36.70;24.00;;;4.00;99.90;;;;;;5087596;28;20434;-74
2021/01/01 06:37:41;;;;;;;34.13;23.47;;;4.00;99.90;;;;;;5086742;28;20434;-74
2021/01/01 06:40:22;;;;;;;35.23;24.00;;;4.10;99.90;;;;;;5077810;28;20226;-74
2021/01/01 06:43:07;;;;;;;37.63;23.33;;;4.00;99.90;;;;;;5088057;28;20422;-74
2021/01/01 06:45:39;;;;;;;40.37;26.30;;;4.10;99.90;;;;;;5086617;28;20430;-74
2021/01/01 06:48:05;;;;;;;38.50;24.90;;;3.90;99.90;;;;;;5087958;28;20541;-74
2021/01/01 06:50:33;;;;;;;38.17;24.83;;;3.80;99.90;;;;;;5084454;28;20458;-75
2021/01/01 06:53:12;;;;;;;38.83;25.27;;;4.00;99.90;;;;;;5086256;28;20528;-75
2021/01/01 06:56:07;;;;;;;38.67;26.00;;;4.10;99.90;;;;;;5087298;28;20447;-75
2021/01/01 06:58:33;;;;;;;42.23;26.57;;;3.90;99.90;;;;;;5085682;28;20471;-75
2021/01/01 07:00:59;;;;;;;42.77;25.87;;;3.90;99.90;;;;;;5086799;28;20509;-75
2021/01/01 07:03:27;;;;;;;44.60;26.27;;;3.80;99.90;;;;;;5068548;28;20193;-75
2021/01/01 07:05:55;;;;;;;39.50;24.83;;;3.90;99.90;;;;;;5075668;28;20904;-75
2021/01/01 07:08:42;;;;;;;43.00;26.00;;;3.70;99.90;;;;;;5064310;28;20595;-75
2021/01/01 07:13:53;;;;;;;40.70;26.77;;;4.00;99.90;;;;;;5087284;28;20421;-75
2021/01/01 07:16:20;;;;;;;43.93;26.20;;;3.80;99.90;;;;;;5087629;28;20442;-75
2021/01/01 07:18:46;;;;;;;37.73;25.50;;;4.00;99.90;;;;;;5086180;28;20538;-74
2021/01/01 07:21:15;;;;;;;39.37;27.10;;;3.90;99.90;;;;;;5091492;28;20949;-75
2021/01/01 07:23:41;;;;;;;36.53;25.47;;;4.10;99.90;;;;;;5091115;28;20744;-75
2021/01/01 07:26:07;;;;;;;40.30;25.00;;;4.00;99.90;;;;;;5090175;28;20423;-74
2021/01/01 07:28:33;;;;;;;40.37;26.00;;;4.00;99.90;;;;;;5091749;28;20578;-75
2021/01/01 07:30:59;;;;;;;41.37;27.53;;;4.20;99.90;;;;;;5090062;28;20525;-75
2021/01/01 07:33:34;;;;;;;38.90;24.87;;;4.00;99.90;;;;;;5089538;28;20951;-75
2021/01/01 07:36:05;;;;;;;41.80;25.00;;;4.00;99.90;;;;;;5076673;28;20462;-75
2021/01/01 07:38:34;;;;;;;37.87;26.57;;;4.20;99.90;;;;;;5091323;28;20420;-75
2021/01/01 07:41:00;;;;;;;39.13;25.20;;;4.10;99.90;;;;;;5091209;28;20470;-74
2021/01/01 07:43:26;;;;;;;40.50;26.17;;;4.10;99.90;;;;;;5089285;28;20936;-75
2021/01/01 07:46:05;;;;;;;36.37;25.20;;;4.10;99.90;;;;;;5091014;28;20465;-75
2021/01/01 07:48:31;;;;;;;41.20;26.37;;;3.90;99.90;;;;;;5090167;28;20666;-74
2021/01/01 07:50:58;;;;;;;38.17;25.87;;;4.00;99.90;;;;;;5089729;28;20446;-75
2021/01/01 07:53:24;;;;;;;41.73;26.33;;;4.10;99.90;;;;;;5090449;28;20816;-75
2021/01/01 07:55:50;;;;;;;41.23;26.40;;;3.90;99.90;;;;;;5072872;28;20434;-75
2021/01/01 07:58:16;;;;;;;39.03;26.23;;;4.10;99.90;;;;;;5090800;28;20188;-75
2021/01/01 08:00:45;;;;;;;39.70;26.23;;;4.00;99.90;;;;;;5089826;28;20232;-75
2021/01/01 08:03:12;;;;;;;46.63;27.37;;;4.00;99.90;;;;;;5089027;28;21025;-75
2021/01/01 08:05:38;;;;;;;37.77;25.00;;;3.90;99.90;;;;;;5091003;28;20437;-75
2021/01/01 08:08:12;;;;;;;38.50;26.13;;;3.90;99.90;;;;;;5090636;28;20423;-75
2021/01/01 08:10:39;;;;;;;45.00;27.63;;;4.10;99.90;;;;;;5090616;28;20433;-75
2021/01/01 08:13:21;;;;;;;41.70;27.13;;;3.90;99.90;;;;;;5090043;28;20464;-75
2021/01/01 08:15:49;;;;;;;44.60;30.00;;;4.00;99.90;;;;;;5090529;28;20456;-75
2021/01/01 08:18:22;;;;;;;43.20;28.03;;;3.70;99.90;;;;;;5090882;28;20426;-75
2021/01/01 08:20:55;;;;;;;46.00;29.50;;;3.90;99.90;;;;;;5090522;28;20959;-75
2021/01/01 08:23:21;;;;;;;51.67;32.70;;;3.70;99.90;;;;;;5089709;28;20419;-75
2021/01/01 08:25:48;;;;;;;49.17;29.47;;;3.70;99.90;;;;;;5090687;28;20433;-75
2021/01/01 08:28:28;;;;;;;47.17;29.70;;;3.50;99.90;;;;;;5090269;28;20434;-75
2021/01/01 08:31:00;;;;;;;54.10;30.53;;;3.80;99.90;;;;;;5086650;28;20430;-75
2021/01/01 08:33:30;;;;;;;50.63;33.13;;;3.70;99.90;;;;;;5088079;28;20455;-75
2021/01/01 08:36:00;;;;;;;54.10;33.47;;;3.90;99.90;;;;;;5090168;28;20434;-74
2021/01/01 08:38:26;;;;;;;56.00;33.40;;;3.90;99.90;;;;;;5090282;28;20988;-74
2021/01/01 08:40:54;;;;;;;56.67;33.47;;;4.00;99.90;;;;;;5089013;28;20789;-74
2021/01/01 08:43:20;;;;;;;62.67;34.90;;;3.70;99.90;;;;;;5089368;28;20438;-75
2021/01/01 08:45:46;;;;;;;53.43;33.67;;;3.70;99.90;;;;;;5090260;28;20511;-74
2021/01/01 08:48:13;;;;;;;51.97;32.30;;;3.70;99.90;;;;;;5089493;28;20442;-74
2021/01/01 08:50:57;;;;;;;54.00;31.43;;;3.90;99.90;;;;;;5088840;28;20438;-75
2021/01/01 08:53:22;;;;;;;59.97;35.93;;;3.80;99.90;;;;;;5089337;28;20430;-74
2021/01/01 08:55:59;;;;;;;53.27;32.70;;;3.90;99.90;;;;;;5088818;28;20432;-74
2021/01/01 08:58:26;;;;;;;65.80;32.93;;;3.70;99.90;;;;;;5088534;28;20233;-75
2021/01/01 09:00:52;;;;;;;60.30;33.23;;;3.70;99.90;;;;;;5088560;28;20466;-75
2021/01/01 09:03:21;;;;;;;58.87;33.93;;;3.80;99.90;;;;;;5087596;28;20464;-75
2021/01/01 09:05:55;;;;;;;61.53;33.70;;;3.60;99.90;;;;;;5090031;28;20807;-74
2021/01/01 09:08:22;;;;;;;61.43;34.87;;;3.60;99.90;;;;;;5089350;28;20799;-75
2021/01/01 09:10:49;;;;;;;60.43;34.67;;;3.80;99.90;;;;;;5089624;28;20418;-74
2021/01/01 09:13:20;;;;;;;60.17;35.20;;;3.90;99.90;;;;;;5087344;28;20450;-75
2021/01/01 09:15:47;;;;;;;74.80;36.63;;;3.70;99.90;;;;;;5089401;28;21283;-75
2021/01/01 09:18:14;;;;;;;76.73;40.60;;;3.80;99.90;;;;;;5088129;28;20426;-74
2021/01/01 09:20:42;;;;;;;72.40;37.53;;;3.80;99.90;;;;;;5088102;28;20458;-74
2021/01/01 09:23:10;;;;;;;69.53;36.33;;;4.10;99.90;;;;;;5076092;28;20426;-75
2021/01/01 09:25:38;;;;;;;68.07;37.63;;;4.00;99.90;;;;;;5071176;28;20423;-75
2021/01/01 09:28:04;;;;;;;80.20;39.60;;;3.70;99.90;;;;;;5088131;28;20437;-74
2021/01/01 09:30:32;;;;;;;67.20;36.77;;;3.90;99.90;;;;;;5086819;28;20427;-75
2021/01/01 09:32:59;;;;;;;68.80;39.07;;;4.10;99.90;;;;;;5087281;28;20777;-74
2021/01/01 09:35:26;;;;;;;71.17;38.57;;;4.10;99.90;;;;;;5087636;28;20501;-74
2021/01/01 09:38:03;;;;;;;73.40;39.33;;;4.30;99.90;;;;;;5088012;28;20422;-74
2021/01/01 09:40:34;;;;;;;79.13;40.10;;;4.00;99.90;;;;;;5088892;28;20458;-74
2021/01/01 09:43:07;;;;;;;66.43;37.30;;;3.70;99.90;;;;;;5087088;28;20389;-74
2021/01/01 09:45:34;;;;;;;70.27;38.63;;;3.90;99.90;;;;;;5088751;28;20429;-74
2021/01/01 09:47:59;;;;;;;80.03;39.30;;;3.90;99.90;;;;;;5088076;28;20823;-74
2021/01/01 09:50:25;;;;;;;73.57;37.80;;;4.10;99.90;;;;;;5087793;28;20425;-74
2021/01/01 09:52:51;;;;;;;81.43;43.10;;;4.30;99.90;;;;;;5086930;28;20192;-75
2021/01/01 09:55:17;;;;;;;71.73;38.70;;;4.10;99.90;;;;;;5087460;28;20189;-75
2021/01/01 09:57:43;;;;;;;66.83;37.20;;;4.10;99.90;;;;;;5070729;28;20192;-74
2021/01/01 10:00:10;;;;;;;77.50;40.00;;;4.10;99.90;;;;;;5087311;28;20466;-74
2021/01/01 10:02:36;;;;;;;75.83;39.43;;;4.20;99.90;;;;;;5088680;28;20255;-74
2021/01/01 10:05:04;;;;;;;75.10;41.17;;;4.10;99.90;;;;;;5086583;28;20472;-74
2021/01/01 10:07:30;;;;;;;70.50;38.60;;;4.30;99.90;;;;;;5088056;28;20496;-74
2021/01/01 10:09:56;;;;;;;68.87;38.43;;;4.30;99.90;;;;;;5087437;28;20475;-74
2021/01/01 10:12:22;;;;;;;70.33;40.60;;;4.30;99.90;;;;;;5078967;28;20183;-73
2021/01/01 10:14:50;;;;;;;79.77;43.37;;;4.10;99.90;;;;;;5080066;28;20426;-73
2021/01/01 10:17:16;;;;;;;90.57;43.70;;;4.30;99.90;;;;;;5075457;28;20442;-73
2021/01/01 10:19:42;;;;;;;79.00;43.00;;;4.30;99.90;;;;;;5076061;28;20562;-74
2021/01/01 10:22:09;;;;;;;77.57;40.90;;;4.40;99.90;;;;;;5077589;28;20861;-74
2021/01/01 10:24:35;;;;;;;80.67;39.67;;;4.20;99.90;;;;;;5087580;28;20419;-74
2021/01/01 10:27:00;;;;;;;82.43;41.93;;;4.20;99.90;;;;;;5086953;28;20665;-74
2021/01/01 10:29:26;;;;;;;68.10;39.20;;;4.10;99.90;;;;;;5070353;28;20418;-74
2021/01/01 10:31:52;;;;;;;89.10;45.10;;;4.00;99.90;;;;;;5085898;28;20601;-74
2021/01/01 10:34:19;;;;;;;79.00;41.80;;;4.00;99.90;;;;;;5087592;28;20204;-74
2021/01/01 10:36:45;;;;;;;85.00;45.27;;;4.20;99.90;;;;;;5087848;28;21142;-74
2021/01/01 10:39:11;;;;;;;78.10;40.80;;;4.60;99.90;;;;;;5086766;28;20533;-74
2021/01/01 10:41:37;;;;;;;74.60;40.73;;;4.30;99.90;;;;;;5086278;28;20187;-74
2021/01/01 10:44:05;;;;;;;73.50;41.03;;;4.80;99.90;;;;;;5066274;28;20192;-74
2021/01/01 10:46:31;;;;;;;83.97;44.33;;;4.50;99.90;;;;;;5079638;28;20422;-74
2021/01/01 10:48:58;;;;;;;77.17;42.90;;;4.60;99.90;;;;;;5086790;28;20564;-74
2021/01/01 10:51:25;;;;;;;69.43;38.57;;;4.70;99.90;;;;;;5069779;28;20195;-74
2021/01/01 10:53:51;;;;;;;81.53;41.73;;;4.80;99.90;;;;;;5086627;28;20421;-74
2021/01/01 10:56:35;;;;;;;77.67;42.00;;;5.00;99.90;;;;;;5087399;28;20419;-74
2021/01/01 10:59:01;;;;;;;80.27;41.23;;;5.20;99.90;;;;;;5081715;28;20436;-74
2021/01/01 11:01:26;;;;;;;81.10;42.57;;;4.90;99.90;;;;;;5085083;28;20418;-74
2021/01/01 11:03:52;;;;;;;77.87;41.47;;;5.10;99.90;;;;;;5068207;28;20477;-74
2021/01/01 11:06:19;;;;;;;68.83;38.43;;;5.30;99.90;;;;;;5086128;28;20731;-74
2021/01/01 11:08:46;;;;;;;73.83;40.83;;;5.40;99.90;;;;;;5087174;28;20475;-74
2021/01/01 11:11:13;;;;;;;71.37;40.67;;;5.20;99.90;;;;;;5087167;28;20447;-74
2021/01/01 11:13:54;;;;;;;66.67;40.43;;;5.40;99.90;;;;;;5085776;28;20470;-74
2021/01/01 12:25:13;;;;;;;45.87;29.27;;;16.60;88.20;;;;;;5088816;28;20418;-73
2021/01/01 12:27:39;;;;;;;46.17;31.80;;;15.70;88.90;;;;;;5088165;28;20513;-74
2021/01/01 12:30:11;;;;;;;46.53;31.10;;;13.20;91.80;;;;;;5089572;28;20551;-73
2021/01/01 12:32:38;;;;;;;46.37;30.17;;;11.10;96.50;;;;;;5088370;28;20427;-73
2021/01/01 12:35:05;;;;;;;42.03;30.00;;;9.80;99.90;;;;;;5088904;28;20784;-72
2021/01/01 12:37:31;;;;;;;46.20;29.20;;;9.10;99.90;;;;;;5071203;28;20430;-73
2021/01/01 12:39:57;;;;;;;44.53;30.40;;;8.50;99.90;;;;;;5089456;28;21075;-73
2021/01/01 12:42:22;;;;;;;44.73;29.53;;;8.30;99.90;;;;;;5088022;28;20177;-73
2021/01/01 12:44:48;;;;;;;48.00;31.77;;;7.60;99.90;;;;;;5087114;28;20614;-72
2021/01/01 12:47:14;;;;;;;45.30;29.90;;;7.30;99.90;;;;;;5071124;28;20566;-72
2021/01/01 12:49:42;;;;;;;43.50;28.33;;;6.90;99.90;;;;;;5089299;28;20192;-72
2021/01/01 12:52:07;;;;;;;41.70;28.30;;;6.80;99.90;;;;;;5088536;28;20437;-72
2021/01/01 12:54:33;;;;;;;44.63;29.03;;;6.30;99.90;;;;;;5088563;28;20418;-72
2021/01/01 12:56:59;;;;;;;49.87;29.63;;;6.20;99.90;;;;;;5087035;28;20672;-72
2021/01/01 12:59:24;;;;;;;46.33;29.57;;;6.10;99.90;;;;;;5068732;28;20234;-72
2021/01/01 13:01:50;;;;;;;48.33;30.17;;;6.00;99.90;;;;;;5086426;28;20180;-72
2021/01/01 13:04:16;;;;;;;48.40;29.37;;;6.10;99.90;;;;;;5088362;28;20594;-72
2021/01/01 13:06:44;;;;;;;49.83;32.07;;;5.80;99.90;;;;;;5087329;28;20191;-72
2021/01/01 13:09:09;;;;;;;51.80;31.00;;;5.60;99.90;;;;;;5089074;28;20716;-73
2021/01/01 13:11:41;;;;;;;49.97;29.70;;;5.40;99.90;;;;;;5088628;28;20431;-72
2021/01/01 13:14:07;;;;;;;52.00;30.23;;;5.40;99.90;;;;;;5088134;28;20283;-72
2021/01/01 13:16:33;;;;;;;53.40;30.07;;;5.40;99.90;;;;;;5088108;28;20529;-72
2021/01/01 13:18:58;;;;;;;50.07;30.60;;;5.50;99.90;;;;;;5087131;28;20185;-72
2021/01/01 13:21:29;;;;;;;49.63;30.03;;;5.30;99.90;;;;;;5087626;28;20184;-72
2021/01/01 13:23:55;;;;;;;53.93;31.17;;;5.80;99.90;;;;;;5087642;28;20558;-73
2021/01/01 13:26:22;;;;;;;53.83;30.30;;;5.40;99.90;;;;;;5073313;28;20425;-72
2021/01/01 13:28:48;;;;;;;55.97;32.83;;;5.50;99.90;;;;;;5080240;28;20423;-74
2021/01/01 13:31:14;;;;;;;56.47;31.77;;;5.50;99.90;;;;;;5085432;28;20495;-73
2021/01/01 13:33:41;;;;;;;58.43;32.93;;;5.30;99.90;;;;;;5087591;28;20422;-73
2021/01/01 13:36:15;;;;;;;54.67;32.80;;;5.10;99.90;;;;;;5087913;28;20932;-72
2021/01/01 13:38:41;;;;;;;51.20;30.27;;;5.20;99.90;;;;;;5088651;28;20429;-72
2021/01/01 13:41:11;;;;;;;51.70;30.60;;;5.10;99.90;;;;;;5087536;28;20490;-72
2021/01/01 13:43:37;;;;;;;45.00;29.00;;;5.20;99.90;;;;;;5085604;28;20434;-72
2021/01/01 13:46:03;;;;;;;47.17;29.03;;;5.30;99.90;;;;;;5086495;28;20458;-73
2021/01/01 13:48:29;;;;;;;46.40;28.83;;;5.40;99.90;;;;;;5086178;28;20499;-73
2021/01/01 13:50:55;;;;;;;41.13;25.77;;;5.50;99.90;;;;;;5087401;28;20426;-73
2021/01/01 13:53:20;;;;;;;41.80;26.67;;;5.30;99.90;;;;;;5087030;28;20193;-72